createdAt,value
2022-08-26T00:02:12.600Z,8.65
2022-08-26T00:04:41.109Z,9.52
2022-08-26T00:07:09.153Z,9.90
2022-08-26T00:09:40.248Z,9.30
2022-08-26T00:12:09.492Z,9.65
2022-08-26T00:14:40.573Z,9.68
2022-08-26T00:17:08.861Z,9.43
2022-08-26T00:19:37.391Z,10.38
2022-08-26T00:22:05.900Z,9.65
2022-08-26T00:24:33.822Z,9.63
2022-08-26T00:27:01.740Z,9.50
2022-08-26T00:29:32.003Z,10.25
2022-08-26T00:32:04.111Z,10.30
2022-08-26T00:34:32.075Z,10.00
2022-08-26T00:36:59.731Z,11.20
2022-08-26T00:39:28.023Z,10.23
2022-08-26T00:41:55.933Z,10.25
2022-08-26T00:44:23.951Z,10.18
2022-08-26T00:46:56.711Z,10.27
2022-08-26T00:49:36.002Z,10.25
2022-08-26T00:52:09.885Z,10.10
2022-08-26T00:54:46.937Z,9.50
2022-08-26T00:57:18.535Z,10.30
2022-08-26T00:59:51.397Z,10.65
2022-08-26T01:02:20.019Z,10.60
2022-08-26T01:04:56.342Z,9.40
2022-08-26T01:07:27.441Z,10.10
2022-08-26T01:09:56.389Z,10.13
2022-08-26T01:12:27.734Z,10.65
2022-08-26T01:14:56.163Z,10.55
2022-08-26T01:17:23.975Z,10.60
2022-08-26T01:19:58.617Z,10.50
2022-08-26T01:22:38.489Z,11.20
2022-08-26T01:25:06.876Z,10.35
2022-08-26T01:27:35.411Z,10.73
2022-08-26T01:30:04.789Z,10.95
2022-08-26T01:32:33.961Z,11.55
2022-08-26T01:35:02.217Z,11.13
2022-08-26T01:37:34.860Z,10.35
2022-08-26T01:40:06.046Z,11.30
2022-08-26T01:42:34.925Z,10.85
2022-08-26T01:45:18.362Z,10.63
2022-08-26T01:47:57.037Z,9.68
2022-08-26T01:50:36.253Z,10.40
2022-08-26T01:53:09.521Z,11.00
2022-08-26T01:55:43.022Z,10.88
2022-08-26T01:58:26.562Z,10.52
2022-08-26T02:00:55.089Z,10.85
2022-08-26T02:03:24.335Z,10.38
2022-08-26T02:06:05.141Z,10.43
2022-08-26T02:08:47.635Z,11.10
2022-08-26T02:11:15.862Z,11.20
2022-08-26T02:13:51.862Z,10.35
2022-08-26T02:16:26.959Z,10.52
2022-08-26T02:18:56.104Z,10.23
2022-08-26T02:21:24.990Z,10.75
2022-08-26T02:23:52.945Z,10.07
2022-08-26T02:26:26.914Z,9.98
2022-08-26T02:29:09.777Z,10.07
2022-08-26T02:31:37.755Z,9.30
2022-08-26T02:34:15.674Z,10.07
2022-08-26T02:36:44.326Z,9.57
2022-08-26T02:39:13.647Z,10.38
2022-08-26T02:41:45.496Z,9.55
2022-08-26T02:44:13.697Z,9.60
2022-08-26T02:46:41.565Z,9.05
2022-08-26T02:49:16.287Z,9.80
2022-08-26T02:51:45.717Z,8.88
2022-08-26T02:54:13.952Z,9.25
2022-08-26T02:56:42.252Z,9.23
2022-08-26T02:59:12.656Z,9.60
2022-08-26T03:01:40.933Z,9.10
2022-08-26T03:04:12.248Z,9.40
2022-08-26T03:06:40.694Z,9.05
2022-08-26T03:09:10.103Z,9.88
2022-08-26T03:11:47.256Z,9.50
2022-08-26T03:14:15.196Z,9.70
2022-08-26T03:16:43.655Z,9.70
2022-08-26T03:19:17.663Z,10.00
2022-08-26T03:21:47.457Z,10.02
2022-08-26T03:24:15.774Z,10.38
2022-08-26T03:26:52.400Z,9.75
2022-08-26T03:29:40.564Z,9.70
2022-08-26T03:32:09.656Z,9.93
2022-08-26T03:34:38.749Z,9.65
2022-08-26T03:37:06.696Z,9.63
2022-08-26T03:39:35.081Z,9.32
2022-08-26T03:42:02.755Z,8.80
2022-08-26T03:44:30.494Z,9.18
2022-08-26T03:46:58.571Z,8.23
2022-08-26T03:49:26.464Z,8.30
2022-08-26T03:51:56.822Z,7.15
2022-08-26T03:54:24.762Z,8.70
2022-08-26T03:56:52.461Z,7.68
2022-08-26T03:59:20.975Z,9.30
2022-08-26T04:01:49.040Z,7.78
2022-08-26T04:04:17.022Z,7.90
2022-08-26T04:06:45.284Z,6.95
2022-08-26T04:09:18.037Z,7.22
2022-08-26T04:11:47.501Z,7.65
2022-08-26T04:14:21.705Z,7.18
2022-08-26T04:16:50.342Z,7.75
2022-08-26T04:19:20.017Z,7.50
2022-08-26T04:21:51.098Z,8.85
2022-08-26T04:24:20.051Z,8.88
2022-08-26T04:26:49.033Z,7.90
2022-08-26T04:29:20.139Z,7.55
2022-08-26T04:31:48.335Z,7.63
2022-08-26T04:34:17.535Z,7.45
2022-08-26T04:36:45.496Z,7.50
2022-08-26T04:39:16.743Z,6.93
2022-08-26T04:41:47.826Z,7.35
2022-08-26T04:44:16.708Z,6.43
2022-08-26T04:46:45.351Z,6.45
2022-08-26T04:49:14.078Z,7.10
2022-08-26T04:51:41.670Z,7.18
2022-08-26T04:54:14.078Z,6.55
2022-08-26T04:56:47.277Z,6.82
2022-08-26T04:59:18.241Z,6.50
2022-08-26T05:01:48.871Z,6.03
2022-08-26T05:04:19.894Z,7.03
2022-08-26T05:06:50.090Z,6.40
2022-08-26T05:09:18.635Z,7.25
2022-08-26T05:11:48.504Z,6.88
2022-08-26T05:14:23.293Z,7.70
2022-08-26T05:16:52.089Z,7.07
2022-08-26T05:19:19.796Z,7.63
2022-08-26T05:21:49.569Z,6.40
2022-08-26T05:24:18.231Z,6.95
2022-08-26T05:26:47.198Z,6.75
2022-08-26T05:29:16.771Z,7.13
2022-08-26T05:31:44.843Z,6.70
2022-08-26T05:34:12.893Z,6.25
2022-08-26T05:36:41.235Z,6.70
2022-08-26T05:39:10.357Z,6.65
2022-08-26T05:41:41.027Z,6.45
2022-08-26T05:44:12.969Z,6.30
2022-08-26T05:46:43.988Z,6.50
2022-08-26T05:49:15.891Z,6.45
2022-08-26T05:51:47.507Z,6.68
2022-08-26T05:54:21.949Z,6.40
2022-08-26T05:56:51.628Z,6.78
2022-08-26T05:59:24.275Z,6.03
2022-08-26T06:01:53.423Z,6.30
2022-08-26T06:04:24.842Z,6.05
2022-08-26T06:06:55.085Z,7.20
2022-08-26T06:09:23.086Z,7.47
2022-08-26T06:11:51.503Z,8.98
2022-08-26T06:14:19.414Z,7.18
2022-08-26T06:16:47.881Z,6.53
2022-08-26T06:19:15.702Z,6.55
2022-08-26T06:21:47.545Z,7.15
2022-08-26T06:24:41.198Z,6.00
2022-08-26T06:27:13.462Z,6.50
2022-08-26T06:29:41.873Z,6.05
2022-08-26T06:32:09.726Z,6.65
2022-08-26T06:34:37.567Z,5.68
2022-08-26T06:37:06.513Z,5.53
2022-08-26T06:39:34.613Z,6.03
2022-08-26T06:42:03.378Z,6.72
2022-08-26T06:44:35.057Z,6.00
2022-08-26T06:47:02.678Z,6.32
2022-08-26T06:49:30.454Z,6.47
2022-08-26T06:51:58.911Z,6.65
2022-08-26T06:54:29.872Z,6.63
2022-08-26T06:56:58.016Z,6.53
2022-08-26T06:59:26.361Z,6.78
2022-08-26T07:01:54.772Z,6.53
2022-08-26T07:04:24.497Z,6.57
2022-08-26T07:06:53.853Z,6.40
2022-08-26T07:09:24.559Z,6.85
2022-08-26T07:11:53.262Z,6.40
2022-08-26T07:14:22.041Z,6.63
2022-08-26T07:16:50.965Z,6.95
2022-08-26T07:19:29.825Z,6.75
2022-08-26T07:22:00.106Z,6.90
2022-08-26T07:24:29.012Z,6.57
2022-08-26T07:27:05.622Z,6.88
2022-08-26T07:29:34.643Z,6.60
2022-08-26T07:32:03.369Z,6.65
2022-08-26T07:34:34.134Z,6.72
2022-08-26T07:37:02.478Z,6.45
2022-08-26T07:39:31.497Z,6.68
2022-08-26T07:42:01.783Z,6.97
2022-08-26T07:44:37.031Z,6.00
2022-08-26T07:47:10.415Z,6.70
2022-08-26T07:49:57.339Z,6.00
2022-08-26T07:52:28.367Z,6.53
2022-08-26T07:54:58.664Z,6.03
2022-08-26T07:57:28.232Z,6.85
2022-08-26T07:59:56.846Z,6.25
2022-08-26T08:02:25.528Z,6.18
2022-08-26T08:04:54.679Z,6.65
2022-08-26T08:07:25.770Z,6.35
2022-08-26T08:10:11.323Z,6.57
2022-08-26T08:12:40.331Z,6.00
2022-08-26T08:15:10.029Z,6.07
2022-08-26T08:17:37.651Z,6.15
2022-08-26T08:20:07.583Z,6.28
2022-08-26T08:22:35.926Z,5.18
2022-08-26T08:25:06.345Z,5.57
2022-08-26T08:27:38.499Z,5.88
2022-08-26T08:30:08.596Z,5.78
2022-08-26T08:32:40.374Z,5.65
2022-08-26T08:35:10.961Z,5.63
2022-08-26T08:37:40.373Z,5.78
2022-08-26T08:40:10.120Z,5.75
2022-08-26T08:42:44.329Z,5.93
2022-08-26T08:45:24.177Z,5.78
2022-08-26T08:47:56.817Z,5.97
2022-08-26T08:50:30.784Z,5.95
2022-08-26T08:53:15.141Z,5.93
2022-08-26T08:56:39.148Z,6.00
2022-08-26T08:59:17.119Z,7.20
2022-08-26T09:02:08.530Z,6.28
2022-08-26T09:04:38.278Z,6.50
2022-08-26T09:07:10.505Z,6.18
2022-08-26T09:09:42.044Z,6.03
2022-08-26T09:12:17.023Z,6.40
2022-08-26T09:14:47.950Z,6.15
2022-08-26T09:17:31.733Z,6.13
2022-08-26T09:20:26.316Z,6.85
2022-08-26T09:22:56.391Z,5.72
2022-08-26T09:25:24.173Z,6.20
2022-08-26T09:27:54.301Z,6.38
2022-08-26T09:30:33.199Z,6.50
2022-08-26T09:33:15.729Z,6.68
2022-08-26T09:35:48.803Z,6.10
2022-08-26T09:38:26.739Z,5.40
2022-08-26T09:41:08.320Z,5.22
2022-08-26T09:43:36.999Z,5.35
2022-08-26T09:46:18.652Z,5.63
2022-08-26T09:48:46.588Z,5.25
2022-08-26T09:51:26.462Z,5.22
2022-08-26T09:54:03.084Z,5.47
2022-08-26T09:56:36.961Z,5.60
2022-08-26T09:59:11.160Z,6.32
2022-08-26T10:01:44.890Z,5.50
2022-08-26T10:04:20.713Z,5.85
2022-08-26T10:07:04.173Z,5.63
2022-08-26T10:09:43.379Z,5.72
2022-08-26T10:12:17.422Z,5.97
2022-08-26T10:14:52.005Z,5.65
2022-08-26T10:17:39.263Z,5.32
2022-08-26T10:20:36.172Z,6.10
2022-08-26T10:23:04.458Z,5.95
2022-08-26T10:25:40.800Z,6.32
2022-08-26T10:28:20.538Z,6.85
2022-08-26T10:30:56.958Z,6.30
2022-08-26T10:33:25.646Z,6.22
2022-08-26T10:35:58.432Z,6.10
2022-08-26T10:38:34.274Z,5.97
2022-08-26T10:41:24.148Z,6.10
2022-08-26T10:44:03.499Z,6.53
2022-08-26T10:46:52.648Z,6.55
2022-08-26T10:49:20.556Z,6.57
2022-08-26T10:52:15.155Z,6.57
2022-08-26T10:54:50.453Z,5.65
2022-08-26T10:57:49.176Z,5.88
2022-08-26T11:00:41.168Z,7.05
2022-08-26T11:03:34.528Z,6.43
2022-08-26T11:06:25.280Z,6.25
2022-08-26T11:08:56.816Z,6.60
2022-08-26T11:11:46.789Z,6.80
2022-08-26T11:14:29.309Z,5.90
2022-08-26T11:16:59.786Z,6.43
2022-08-26T11:19:59.722Z,6.15
2022-08-26T11:22:30.139Z,5.72
2022-08-26T11:24:57.774Z,6.35
2022-08-26T11:27:38.460Z,6.10
2022-08-26T11:30:33.994Z,6.00
2022-08-26T11:33:02.179Z,5.97
2022-08-26T11:35:50.623Z,5.80
2022-08-26T11:38:28.546Z,6.07
2022-08-26T11:41:04.907Z,5.97
2022-08-26T11:43:33.707Z,6.25
2022-08-26T11:46:05.643Z,7.10
2022-08-26T11:48:40.923Z,6.57
2022-08-26T11:53:44.681Z,7.03
2022-08-26T11:56:28.831Z,6.38
2022-08-26T11:59:04.194Z,6.45
2022-08-26T12:01:38.200Z,6.33
2022-08-26T12:04:10.682Z,6.65
2022-08-26T12:06:51.085Z,6.30
2022-08-26T12:09:32.110Z,6.65
2022-08-26T12:12:18.730Z,6.47
2022-08-26T12:14:46.953Z,6.30
2022-08-26T12:17:27.186Z,5.85
2022-08-26T12:19:54.955Z,6.13
2022-08-26T12:22:28.224Z,5.93
2022-08-26T12:25:06.089Z,5.85
2022-08-26T12:27:43.237Z,6.10
2022-08-26T12:30:14.010Z,6.15
2022-08-26T12:32:58.071Z,6.70
2022-08-26T12:35:28.950Z,6.75
2022-08-26T12:37:57.920Z,7.15
2022-08-26T12:40:31.924Z,9.88
2022-08-26T12:43:02.079Z,7.35
2022-08-26T12:45:29.859Z,7.40
2022-08-26T12:48:01.463Z,7.45
2022-08-26T12:50:33.777Z,7.60
2022-08-26T12:53:05.668Z,7.20
2022-08-26T12:55:33.604Z,7.82
2022-08-26T12:58:38.311Z,7.93
2022-08-26T13:01:09.333Z,8.10
2022-08-26T13:03:37.709Z,8.07
2022-08-26T13:06:29.999Z,7.65
2022-08-26T13:09:22.772Z,7.85
2022-08-26T13:11:52.997Z,7.65
2022-08-26T13:14:24.416Z,8.05
2022-08-26T13:16:53.564Z,7.90
2022-08-26T13:19:25.750Z,7.53
2022-08-26T13:21:59.099Z,7.90
2022-08-26T13:24:32.879Z,7.65
2022-08-26T13:27:01.938Z,7.65
2022-08-26T13:29:29.989Z,8.00
2022-08-26T13:31:59.478Z,7.82
2022-08-26T13:34:28.295Z,7.72
2022-08-26T13:36:56.706Z,8.15
2022-08-26T13:39:25.602Z,7.68
2022-08-26T13:41:53.909Z,7.65
2022-08-26T13:44:21.872Z,7.55
2022-08-26T13:46:49.841Z,7.82
2022-08-26T13:49:17.887Z,7.85
2022-08-26T13:51:45.900Z,7.60
2022-08-26T13:54:13.654Z,7.13
2022-08-26T13:56:41.792Z,7.55
2022-08-26T13:59:10.010Z,7.65
2022-08-26T14:01:39.905Z,7.72
2022-08-26T14:04:08.721Z,8.63
2022-08-26T14:06:37.464Z,7.60
2022-08-26T14:09:05.441Z,7.68
2022-08-26T14:11:37.016Z,8.80
2022-08-26T14:14:18.571Z,8.07
2022-08-26T14:16:59.495Z,7.97
2022-08-26T14:19:30.183Z,7.80
2022-08-26T14:22:00.817Z,8.20
2022-08-26T14:24:29.197Z,7.95
2022-08-26T14:26:57.025Z,8.07
2022-08-26T14:29:25.042Z,8.38
2022-08-26T14:31:54.605Z,7.65
2022-08-26T14:34:22.378Z,7.68
2022-08-26T14:36:50.259Z,8.30
2022-08-26T14:39:18.142Z,7.88
2022-08-26T14:41:54.093Z,7.75
2022-08-26T14:44:30.606Z,7.47
2022-08-26T14:47:02.101Z,7.32
2022-08-26T14:49:31.593Z,7.10
2022-08-26T14:51:59.853Z,7.47
2022-08-26T14:54:29.470Z,7.28
2022-08-26T14:57:17.932Z,7.20
2022-08-26T14:59:49.901Z,7.30
2022-08-26T15:02:22.251Z,6.70
2022-08-26T15:05:02.543Z,7.60
2022-08-26T15:07:31.000Z,7.22
2022-08-26T15:09:59.035Z,6.68
2022-08-26T15:12:27.808Z,6.88
2022-08-26T15:14:55.699Z,7.13
2022-08-26T15:17:23.632Z,7.25
2022-08-26T15:19:52.069Z,7.60
2022-08-26T15:22:20.080Z,6.65
2022-08-26T15:24:47.949Z,6.50
2022-08-26T15:27:21.466Z,7.35
2022-08-26T15:29:49.474Z,7.20
2022-08-26T15:32:17.421Z,7.22
2022-08-26T15:34:45.783Z,7.18
2022-08-26T15:37:13.727Z,6.53
2022-08-26T15:39:41.611Z,7.30
2022-08-26T15:42:11.104Z,7.15
2022-08-26T15:44:44.172Z,7.22
2022-08-26T15:47:12.898Z,7.05
2022-08-26T15:49:41.113Z,6.97
2022-08-26T15:52:09.434Z,6.57
2022-08-26T15:54:37.493Z,7.03
2022-08-26T15:57:08.175Z,7.03
2022-08-26T15:59:37.336Z,6.82
2022-08-26T16:02:05.848Z,6.50
2022-08-26T16:04:33.635Z,6.70
2022-08-26T16:07:01.407Z,6.75
2022-08-26T16:09:30.766Z,6.80
2022-08-26T16:12:01.920Z,6.53
2022-08-26T16:14:30.255Z,9.93
2022-08-26T16:16:58.053Z,7.57
2022-08-26T16:19:25.832Z,6.85
2022-08-26T16:21:53.959Z,6.85
2022-08-26T16:24:24.778Z,6.90
2022-08-26T16:26:55.701Z,6.75
2022-08-26T16:29:24.626Z,6.55
2022-08-26T16:31:54.673Z,6.43
2022-08-26T16:34:22.984Z,6.22
2022-08-26T16:36:51.706Z,6.70
2022-08-26T16:39:19.785Z,6.22
2022-08-26T16:41:47.685Z,7.00
2022-08-26T16:44:15.472Z,6.63
2022-08-26T16:46:43.402Z,6.72
2022-08-26T16:49:11.372Z,6.40
2022-08-26T16:51:39.187Z,6.80
2022-08-26T16:54:08.757Z,6.63
2022-08-26T16:56:37.888Z,7.00
2022-08-26T16:59:08.052Z,6.82
2022-08-26T17:01:35.888Z,6.65
2022-08-26T17:04:04.122Z,6.50
2022-08-26T17:06:31.828Z,6.35
2022-08-26T17:08:59.951Z,16.98
2022-08-26T17:11:27.733Z,17.30
2022-08-26T17:13:55.506Z,7.25
2022-08-26T17:16:26.923Z,7.43
2022-08-26T17:18:57.371Z,7.40
2022-08-26T17:21:26.285Z,7.90
2022-08-26T17:23:54.520Z,7.05
2022-08-26T17:26:22.321Z,7.43
2022-08-26T17:28:51.129Z,8.13
2022-08-26T17:31:20.418Z,8.05
2022-08-26T17:33:53.810Z,8.13
2022-08-26T17:36:27.885Z,8.43
2022-08-26T17:38:57.644Z,8.43
2022-08-26T17:41:26.478Z,8.75
2022-08-26T17:43:54.645Z,9.05
2022-08-26T17:46:23.020Z,8.38
2022-08-26T17:48:50.966Z,9.20
2022-08-26T17:51:19.787Z,8.02
2022-08-26T17:53:48.787Z,8.32
2022-08-26T17:56:19.448Z,8.25
2022-08-26T17:58:48.152Z,9.10
2022-08-26T18:01:21.301Z,8.65
2022-08-26T18:03:49.506Z,8.10
2022-08-26T18:06:17.250Z,9.13
2022-08-26T18:08:45.356Z,8.50
2022-08-26T18:11:18.077Z,8.77
2022-08-26T18:13:47.649Z,8.45
2022-08-26T18:16:17.683Z,8.57
2022-08-26T18:18:46.732Z,9.10
2022-08-26T18:21:17.876Z,9.02
2022-08-26T18:23:46.996Z,9.05
2022-08-26T18:26:31.468Z,9.15
2022-08-26T18:29:00.030Z,9.98
2022-08-26T18:31:28.420Z,9.95
2022-08-26T18:33:56.520Z,9.93
2022-08-26T18:36:27.740Z,11.60
2022-08-26T18:38:57.110Z,16.33
2022-08-26T18:41:27.733Z,10.95
2022-08-26T18:43:56.510Z,9.80
2022-08-26T18:46:26.944Z,9.90
2022-08-26T18:48:56.447Z,9.90
2022-08-26T18:51:28.139Z,10.40
2022-08-26T18:53:56.890Z,10.68
2022-08-26T18:56:24.967Z,11.93
2022-08-26T18:58:52.752Z,10.68
2022-08-26T19:01:25.502Z,10.52
2022-08-26T19:03:56.334Z,10.43
2022-08-26T19:06:25.778Z,16.13
2022-08-26T19:08:53.809Z,12.15
2022-08-26T19:11:32.637Z,10.15
2022-08-26T19:14:13.644Z,10.43
2022-08-26T19:16:44.560Z,10.90
2022-08-26T19:19:13.452Z,10.50
2022-08-26T19:21:41.577Z,10.38
2022-08-26T19:24:15.377Z,11.23
2022-08-26T19:29:12.531Z,10.35
2022-08-26T19:31:41.416Z,10.57
2022-08-26T19:34:12.554Z,11.55
2022-08-26T19:36:41.047Z,10.93
2022-08-26T19:39:13.048Z,11.00
2022-08-26T19:41:40.845Z,11.88
2022-08-26T19:44:13.044Z,11.75
2022-08-26T19:46:41.658Z,11.77
2022-08-26T19:49:09.502Z,11.82
2022-08-26T19:51:37.408Z,10.90
2022-08-26T19:54:05.794Z,11.43
2022-08-26T19:56:34.407Z,11.45
2022-08-26T19:59:02.088Z,11.38
2022-08-26T20:01:30.743Z,11.25
2022-08-26T20:03:58.544Z,11.95
2022-08-26T20:06:26.280Z,12.65
2022-08-26T20:08:56.257Z,12.60
2022-08-26T20:11:24.471Z,12.85
2022-08-26T20:13:52.264Z,12.77
2022-08-26T20:16:20.247Z,13.07
2022-08-26T20:19:06.781Z,12.25
2022-08-26T20:21:38.234Z,12.63
2022-08-26T20:24:13.275Z,12.73
2022-08-26T20:26:44.534Z,13.75
2022-08-26T20:29:18.739Z,12.98
2022-08-26T20:31:48.347Z,14.35
2022-08-26T20:34:18.636Z,13.98
2022-08-26T20:36:48.133Z,13.13
2022-08-26T20:39:18.325Z,13.52
2022-08-26T20:41:46.349Z,13.60
2022-08-26T20:44:14.244Z,12.90
2022-08-26T20:46:42.267Z,13.85
2022-08-26T20:49:10.402Z,13.65
2022-08-26T20:51:38.584Z,14.10
2022-08-26T20:54:07.674Z,14.43
2022-08-26T20:56:36.319Z,14.27
2022-08-26T20:59:06.119Z,14.18
2022-08-26T21:01:36.015Z,14.65
2022-08-26T21:04:06.800Z,13.82
2022-08-26T21:06:35.364Z,14.27
2022-08-26T21:09:05.400Z,13.18
2022-08-26T21:11:34.045Z,13.45
2022-08-26T21:14:06.654Z,12.98
2022-08-26T21:16:44.747Z,13.35
2022-08-26T21:19:15.493Z,13.57
2022-08-26T21:21:44.561Z,13.10
2022-08-26T21:24:13.140Z,14.07
2022-08-26T21:26:41.271Z,13.95
2022-08-26T21:29:10.024Z,13.02
2022-08-26T21:31:44.909Z,13.10
2022-08-26T21:34:16.903Z,14.98
2022-08-26T21:36:48.180Z,14.43
2022-08-26T21:39:16.640Z,13.82
2022-08-26T21:41:45.479Z,12.95
2022-08-26T21:44:14.524Z,11.65
2022-08-26T21:46:43.904Z,13.10
2022-08-26T21:49:13.838Z,10.88
2022-08-26T21:51:44.964Z,12.68
2022-08-26T21:54:13.878Z,12.50
2022-08-26T21:56:47.085Z,13.07
2022-08-26T21:59:19.290Z,14.48
2022-08-26T22:01:48.208Z,13.38
2022-08-26T22:04:17.179Z,13.70
2022-08-26T22:06:50.794Z,13.07
2022-08-26T22:09:24.145Z,15.07
2022-08-26T22:11:53.125Z,13.20
2022-08-26T22:14:22.429Z,14.10
2022-08-26T22:16:51.062Z,13.95
2022-08-26T22:19:20.600Z,13.93
2022-08-26T22:21:53.531Z,14.40
2022-08-26T22:24:23.847Z,13.68
2022-08-26T22:26:52.710Z,13.10
2022-08-26T22:29:20.720Z,13.43
2022-08-26T22:31:48.643Z,13.55
2022-08-26T22:34:17.524Z,13.57
2022-08-26T22:36:48.663Z,13.57
2022-08-26T22:39:20.131Z,13.15
2022-08-26T22:41:48.864Z,12.95
2022-08-26T22:44:18.188Z,13.90
2022-08-26T22:46:47.618Z,13.05
2022-08-26T22:49:16.544Z,13.63
2022-08-26T22:51:45.984Z,13.60
2022-08-26T22:54:15.428Z,13.77
2022-08-26T22:56:44.952Z,14.27
2022-08-26T22:59:13.057Z,13.80
2022-08-26T23:01:43.027Z,13.57
2022-08-26T23:04:11.669Z,13.60
2022-08-26T23:06:43.304Z,13.18
2022-08-26T23:09:18.542Z,13.35
2022-08-26T23:11:47.871Z,13.25
2022-08-26T23:14:17.201Z,12.75
2022-08-26T23:16:45.937Z,13.18
2022-08-26T23:19:15.512Z,13.55
2022-08-26T23:21:43.854Z,13.13
2022-08-26T23:24:12.188Z,13.57
2022-08-26T23:26:41.203Z,13.40
2022-08-26T23:29:11.281Z,14.13
2022-08-26T23:31:41.684Z,13.15
2022-08-26T23:34:29.421Z,12.60
2022-08-26T23:36:59.299Z,13.63
2022-08-26T23:39:29.307Z,14.80
2022-08-26T23:41:58.062Z,15.02
2022-08-26T23:44:26.640Z,12.65
2022-08-26T23:46:55.146Z,13.30
2022-08-26T23:49:23.374Z,12.95
2022-08-26T23:52:10.420Z,12.75
2022-08-26T23:54:39.832Z,12.75
2022-08-26T23:57:09.399Z,13.52
2022-08-26T23:59:38.442Z,13.27
